sensor_id;sensor_type;location;lat;lon;timestamp;P1;durP1;ratioP1;P2;durP2;ratioP2
21554;SDS011;10938;44.794;-0.676;2022-09-02T00:00:43;4.35;;;3.30;;
21554;SDS011;10938;44.794;-0.676;2022-09-02T00:03:11;4.80;;;3.40;;
21554;SDS011;10938;44.794;-0.676;2022-09-02T00:05:37;5.75;;;3.05;;
21554;SDS011;10938;44.794;-0.676;2022-09-02T00:08:03;6.93;;;3.75;;
21554;SDS011;10938;44.794;-0.676;2022-09-02T00:10:29;5.10;;;3.03;;
21554;SDS011;10938;44.794;-0.676;2022-09-02T00:12:55;6.78;;;3.45;;
21554;SDS011;10938;44.794;-0.676;2022-09-02T00:15:21;4.43;;;3.20;;
21554;SDS011;10938;44.794;-0.676;2022-09-02T00:17:47;6.05;;;3.55;;
21554;SDS011;10938;44.794;-0.676;2022-09-02T00:20:12;7.97;;;3.50;;
21554;SDS011;10938;44.794;-0.676;2022-09-02T00:22:38;6.55;;;3.30;;
21554;SDS011;10938;44.794;-0.676;2022-09-02T00:25:04;7.35;;;3.53;;
21554;SDS011;10938;44.794;-0.676;2022-09-02T00:27:30;5.55;;;3.40;;
21554;SDS011;10938;44.794;-0.676;2022-09-02T00:29:55;4.05;;;3.22;;
21554;SDS011;10938;44.794;-0.676;2022-09-02T00:32:20;6.22;;;3.78;;
21554;SDS011;10938;44.794;-0.676;2022-09-02T00:34:46;8.48;;;4.22;;
21554;SDS011;10938;44.794;-0.676;2022-09-02T00:37:12;5.95;;;3.85;;
21554;SDS011;10938;44.794;-0.676;2022-09-02T00:39:38;6.85;;;3.80;;
21554;SDS011;10938;44.794;-0.676;2022-09-02T00:42:04;5.38;;;3.25;;
21554;SDS011;10938;44.794;-0.676;2022-09-02T00:44:31;6.63;;;3.50;;
21554;SDS011;10938;44.794;-0.676;2022-09-02T00:46:58;6.22;;;3.17;;
21554;SDS011;10938;44.794;-0.676;2022-09-02T00:49:25;4.72;;;3.25;;
21554;SDS011;10938;44.794;-0.676;2022-09-02T00:52:13;6.22;;;3.63;;
21554;SDS011;10938;44.794;-0.676;2022-09-02T00:54:51;4.57;;;3.28;;
21554;SDS011;10938;44.794;-0.676;2022-09-02T00:57:21;6.32;;;3.25;;
21554;SDS011;10938;44.794;-0.676;2022-09-02T01:02:53;5.60;;;3.10;;
21554;SDS011;10938;44.794;-0.676;2022-09-02T01:05:21;5.22;;;3.20;;
21554;SDS011;10938;44.794;-0.676;2022-09-02T01:07:50;5.88;;;3.47;;
21554;SDS011;10938;44.794;-0.676;2022-09-02T01:10:22;7.25;;;4.15;;
21554;SDS011;10938;44.794;-0.676;2022-09-02T01:12:54;5.13;;;3.67;;
21554;SDS011;10938;44.794;-0.676;2022-09-02T01:15:24;7.50;;;3.60;;
21554;SDS011;10938;44.794;-0.676;2022-09-02T01:17:50;6.72;;;3.90;;
21554;SDS011;10938;44.794;-0.676;2022-09-02T01:20:18;6.47;;;3.35;;
21554;SDS011;10938;44.794;-0.676;2022-09-02T01:22:46;4.35;;;3.30;;
21554;SDS011;10938;44.794;-0.676;2022-09-02T01:25:20;6.53;;;3.50;;
21554;SDS011;10938;44.794;-0.676;2022-09-02T01:27:48;6.28;;;3.60;;
21554;SDS011;10938;44.794;-0.676;2022-09-02T01:30:19;5.85;;;3.38;;
21554;SDS011;10938;44.794;-0.676;2022-09-02T01:32:46;5.88;;;3.05;;
21554;SDS011;10938;44.794;-0.676;2022-09-02T01:35:12;6.18;;;4.05;;
21554;SDS011;10938;44.794;-0.676;2022-09-02T01:37:38;6.63;;;3.60;;
21554;SDS011;10938;44.794;-0.676;2022-09-02T01:40:09;5.68;;;3.55;;
21554;SDS011;10938;44.794;-0.676;2022-09-02T01:42:36;9.73;;;3.55;;
21554;SDS011;10938;44.794;-0.676;2022-09-02T01:45:03;6.00;;;3.30;;
21554;SDS011;10938;44.794;-0.676;2022-09-02T01:47:30;5.68;;;3.72;;
21554;SDS011;10938;44.794;-0.676;2022-09-02T01:49:56;8.00;;;3.70;;
21554;SDS011;10938;44.794;-0.676;2022-09-02T01:52:22;7.63;;;3.90;;
21554;SDS011;10938;44.794;-0.676;2022-09-02T01:54:50;7.53;;;3.65;;
21554;SDS011;10938;44.794;-0.676;2022-09-02T01:57:15;8.70;;;3.83;;
21554;SDS011;10938;44.794;-0.676;2022-09-02T01:59:41;6.63;;;3.53;;
21554;SDS011;10938;44.794;-0.676;2022-09-02T02:02:08;6.82;;;3.45;;
21554;SDS011;10938;44.794;-0.676;2022-09-02T02:04:34;6.82;;;3.58;;
21554;SDS011;10938;44.794;-0.676;2022-09-02T02:07:01;8.38;;;4.00;;
21554;SDS011;10938;44.794;-0.676;2022-09-02T02:09:26;4.28;;;3.30;;
21554;SDS011;10938;44.794;-0.676;2022-09-02T02:11:52;8.43;;;4.40;;
21554;SDS011;10938;44.794;-0.676;2022-09-02T02:14:18;9.80;;;4.25;;
21554;SDS011;10938;44.794;-0.676;2022-09-02T02:16:44;9.10;;;4.20;;
21554;SDS011;10938;44.794;-0.676;2022-09-02T02:19:10;4.72;;;3.00;;
21554;SDS011;10938;44.794;-0.676;2022-09-02T02:21:36;7.78;;;3.95;;
21554;SDS011;10938;44.794;-0.676;2022-09-02T02:24:02;7.32;;;3.97;;
21554;SDS011;10938;44.794;-0.676;2022-09-02T02:26:28;6.35;;;3.90;;
21554;SDS011;10938;44.794;-0.676;2022-09-02T02:28:55;4.75;;;3.35;;
21554;SDS011;10938;44.794;-0.676;2022-09-02T02:31:20;6.65;;;3.83;;
21554;SDS011;10938;44.794;-0.676;2022-09-02T02:33:48;7.80;;;4.10;;
21554;SDS011;10938;44.794;-0.676;2022-09-02T02:36:15;6.60;;;3.00;;
21554;SDS011;10938;44.794;-0.676;2022-09-02T02:38:41;6.45;;;4.13;;
21554;SDS011;10938;44.794;-0.676;2022-09-02T02:41:07;6.20;;;3.75;;
21554;SDS011;10938;44.794;-0.676;2022-09-02T02:43:34;4.95;;;4.05;;
21554;SDS011;10938;44.794;-0.676;2022-09-02T02:46:01;8.77;;;4.07;;
21554;SDS011;10938;44.794;-0.676;2022-09-02T02:48:27;6.80;;;3.88;;
21554;SDS011;10938;44.794;-0.676;2022-09-02T02:50:53;5.95;;;3.28;;
21554;SDS011;10938;44.794;-0.676;2022-09-02T02:53:19;6.70;;;4.10;;
21554;SDS011;10938;44.794;-0.676;2022-09-02T02:55:44;6.70;;;4.03;;
21554;SDS011;10938;44.794;-0.676;2022-09-02T02:58:10;6.43;;;3.90;;
21554;SDS011;10938;44.794;-0.676;2022-09-02T03:00:36;7.15;;;3.97;;
21554;SDS011;10938;44.794;-0.676;2022-09-02T03:03:06;8.98;;;4.65;;
21554;SDS011;10938;44.794;-0.676;2022-09-02T03:05:34;6.28;;;4.07;;
21554;SDS011;10938;44.794;-0.676;2022-09-02T03:08:02;7.68;;;4.05;;
21554;SDS011;10938;44.794;-0.676;2022-09-02T03:10:29;8.80;;;4.35;;
21554;SDS011;10938;44.794;-0.676;2022-09-02T03:13:00;7.78;;;4.15;;
21554;SDS011;10938;44.794;-0.676;2022-09-02T03:15:26;5.85;;;3.83;;
21554;SDS011;10938;44.794;-0.676;2022-09-02T03:17:52;6.15;;;3.85;;
21554;SDS011;10938;44.794;-0.676;2022-09-02T03:20:19;5.40;;;3.85;;
21554;SDS011;10938;44.794;-0.676;2022-09-02T03:22:45;6.07;;;4.03;;
21554;SDS011;10938;44.794;-0.676;2022-09-02T03:25:13;5.22;;;3.50;;
21554;SDS011;10938;44.794;-0.676;2022-09-02T03:27:40;7.35;;;4.05;;
21554;SDS011;10938;44.794;-0.676;2022-09-02T03:30:09;5.25;;;4.00;;
21554;SDS011;10938;44.794;-0.676;2022-09-02T03:32:36;6.30;;;4.38;;
21554;SDS011;10938;44.794;-0.676;2022-09-02T03:35:03;7.82;;;4.03;;
21554;SDS011;10938;44.794;-0.676;2022-09-02T03:37:31;5.40;;;3.80;;
21554;SDS011;10938;44.794;-0.676;2022-09-02T03:39:58;6.60;;;3.97;;
21554;SDS011;10938;44.794;-0.676;2022-09-02T03:42:26;6.40;;;4.15;;
21554;SDS011;10938;44.794;-0.676;2022-09-02T03:44:51;4.45;;;3.58;;
21554;SDS011;10938;44.794;-0.676;2022-09-02T03:47:17;4.55;;;3.10;;
21554;SDS011;10938;44.794;-0.676;2022-09-02T03:49:44;4.28;;;3.47;;
21554;SDS011;10938;44.794;-0.676;2022-09-02T03:52:10;5.13;;;3.60;;
21554;SDS011;10938;44.794;-0.676;2022-09-02T03:54:36;6.32;;;4.45;;
21554;SDS011;10938;44.794;-0.676;2022-09-02T03:57:01;5.40;;;3.67;;
21554;SDS011;10938;44.794;-0.676;2022-09-02T03:59:26;6.93;;;3.40;;
21554;SDS011;10938;44.794;-0.676;2022-09-02T04:01:52;4.95;;;3.70;;
21554;SDS011;10938;44.794;-0.676;2022-09-02T04:04:18;5.72;;;3.72;;
21554;SDS011;10938;44.794;-0.676;2022-09-02T04:06:44;4.80;;;3.42;;
21554;SDS011;10938;44.794;-0.676;2022-09-02T04:09:09;7.13;;;4.47;;
21554;SDS011;10938;44.794;-0.676;2022-09-02T04:11:36;6.50;;;3.92;;
21554;SDS011;10938;44.794;-0.676;2022-09-02T04:14:06;5.85;;;4.00;;
21554;SDS011;10938;44.794;-0.676;2022-09-02T04:16:32;6.63;;;4.10;;
21554;SDS011;10938;44.794;-0.676;2022-09-02T04:18:59;5.88;;;3.60;;
21554;SDS011;10938;44.794;-0.676;2022-09-02T04:21:28;7.18;;;3.95;;
21554;SDS011;10938;44.794;-0.676;2022-09-02T04:23:56;7.05;;;4.07;;
21554;SDS011;10938;44.794;-0.676;2022-09-02T04:26:21;8.85;;;3.90;;
21554;SDS011;10938;44.794;-0.676;2022-09-02T04:28:47;5.88;;;4.38;;
21554;SDS011;10938;44.794;-0.676;2022-09-02T04:31:15;7.18;;;4.43;;
21554;SDS011;10938;44.794;-0.676;2022-09-02T04:33:42;9.40;;;4.40;;
21554;SDS011;10938;44.794;-0.676;2022-09-02T04:36:10;8.05;;;4.50;;
21554;SDS011;10938;44.794;-0.676;2022-09-02T04:38:37;6.40;;;4.28;;
21554;SDS011;10938;44.794;-0.676;2022-09-02T04:41:07;8.57;;;4.28;;
21554;SDS011;10938;44.794;-0.676;2022-09-02T04:43:38;7.10;;;4.00;;
21554;SDS011;10938;44.794;-0.676;2022-09-02T04:46:05;5.10;;;4.15;;
21554;SDS011;10938;44.794;-0.676;2022-09-02T04:48:34;6.72;;;3.92;;
21554;SDS011;10938;44.794;-0.676;2022-09-02T04:51:08;7.85;;;4.68;;
21554;SDS011;10938;44.794;-0.676;2022-09-02T04:53:36;7.00;;;4.17;;
21554;SDS011;10938;44.794;-0.676;2022-09-02T04:56:05;7.60;;;5.15;;
21554;SDS011;10938;44.794;-0.676;2022-09-02T04:58:32;7.97;;;4.60;;
21554;SDS011;10938;44.794;-0.676;2022-09-02T05:00:58;6.40;;;4.72;;
21554;SDS011;10938;44.794;-0.676;2022-09-02T05:03:29;6.38;;;3.92;;
21554;SDS011;10938;44.794;-0.676;2022-09-02T05:06:02;8.40;;;4.70;;
21554;SDS011;10938;44.794;-0.676;2022-09-02T05:08:30;5.15;;;4.00;;
21554;SDS011;10938;44.794;-0.676;2022-09-02T05:10:56;5.80;;;3.90;;
21554;SDS011;10938;44.794;-0.676;2022-09-02T05:13:22;7.03;;;4.03;;
21554;SDS011;10938;44.794;-0.676;2022-09-02T05:15:48;6.30;;;4.28;;
21554;SDS011;10938;44.794;-0.676;2022-09-02T05:18:14;6.80;;;4.95;;
21554;SDS011;10938;44.794;-0.676;2022-09-02T05:20:40;5.28;;;3.95;;
21554;SDS011;10938;44.794;-0.676;2022-09-02T05:23:08;8.07;;;4.78;;
21554;SDS011;10938;44.794;-0.676;2022-09-02T05:25:36;6.22;;;4.68;;
21554;SDS011;10938;44.794;-0.676;2022-09-02T05:28:03;9.10;;;5.55;;
21554;SDS011;10938;44.794;-0.676;2022-09-02T05:30:30;8.00;;;5.55;;
21554;SDS011;10938;44.794;-0.676;2022-09-02T05:32:56;9.68;;;5.00;;
21554;SDS011;10938;44.794;-0.676;2022-09-02T05:35:21;8.05;;;4.60;;
21554;SDS011;10938;44.794;-0.676;2022-09-02T05:37:47;6.50;;;4.88;;
21554;SDS011;10938;44.794;-0.676;2022-09-02T05:40:12;8.68;;;5.15;;
21554;SDS011;10938;44.794;-0.676;2022-09-02T05:42:38;8.30;;;4.78;;
21554;SDS011;10938;44.794;-0.676;2022-09-02T05:45:04;10.07;;;4.72;;
21554;SDS011;10938;44.794;-0.676;2022-09-02T05:47:32;9.73;;;5.32;;
21554;SDS011;10938;44.794;-0.676;2022-09-02T05:49:57;7.18;;;4.70;;
21554;SDS011;10938;44.794;-0.676;2022-09-02T05:52:25;5.20;;;4.15;;
21554;SDS011;10938;44.794;-0.676;2022-09-02T05:54:51;10.25;;;5.40;;
21554;SDS011;10938;44.794;-0.676;2022-09-02T05:57:16;8.02;;;5.20;;
21554;SDS011;10938;44.794;-0.676;2022-09-02T05:59:42;8.88;;;4.90;;
21554;SDS011;10938;44.794;-0.676;2022-09-02T06:02:09;6.32;;;4.60;;
21554;SDS011;10938;44.794;-0.676;2022-09-02T06:04:36;8.00;;;5.28;;
21554;SDS011;10938;44.794;-0.676;2022-09-02T06:07:13;6.80;;;5.00;;
21554;SDS011;10938;44.794;-0.676;2022-09-02T06:09:40;10.13;;;5.57;;
21554;SDS011;10938;44.794;-0.676;2022-09-02T06:12:11;7.18;;;4.80;;
21554;SDS011;10938;44.794;-0.676;2022-09-02T06:14:39;10.32;;;5.15;;
21554;SDS011;10938;44.794;-0.676;2022-09-02T06:17:07;6.55;;;5.55;;
21554;SDS011;10938;44.794;-0.676;2022-09-02T06:19:33;12.48;;;5.78;;
21554;SDS011;10938;44.794;-0.676;2022-09-02T06:21:59;6.55;;;4.65;;
21554;SDS011;10938;44.794;-0.676;2022-09-02T06:24:26;7.07;;;4.03;;
21554;SDS011;10938;44.794;-0.676;2022-09-02T06:26:54;6.25;;;4.00;;
21554;SDS011;10938;44.794;-0.676;2022-09-02T06:29:20;9.07;;;4.85;;
21554;SDS011;10938;44.794;-0.676;2022-09-02T06:31:47;7.78;;;3.80;;
21554;SDS011;10938;44.794;-0.676;2022-09-02T06:34:14;6.25;;;4.40;;
21554;SDS011;10938;44.794;-0.676;2022-09-02T06:36:43;9.93;;;4.82;;
21554;SDS011;10938;44.794;-0.676;2022-09-02T06:39:11;6.63;;;4.82;;
21554;SDS011;10938;44.794;-0.676;2022-09-02T06:41:39;7.90;;;4.78;;
21554;SDS011;10938;44.794;-0.676;2022-09-02T06:44:06;12.07;;;5.05;;
21554;SDS011;10938;44.794;-0.676;2022-09-02T06:46:34;9.38;;;4.85;;
21554;SDS011;10938;44.794;-0.676;2022-09-02T06:49:07;7.18;;;4.72;;
21554;SDS011;10938;44.794;-0.676;2022-09-02T06:51:37;6.00;;;4.03;;
21554;SDS011;10938;44.794;-0.676;2022-09-02T06:54:05;10.07;;;5.05;;
21554;SDS011;10938;44.794;-0.676;2022-09-02T06:56:33;8.50;;;4.30;;
21554;SDS011;10938;44.794;-0.676;2022-09-02T06:58:59;7.97;;;4.07;;
21554;SDS011;10938;44.794;-0.676;2022-09-02T07:01:26;7.50;;;3.83;;
21554;SDS011;10938;44.794;-0.676;2022-09-02T07:03:55;9.52;;;4.18;;
21554;SDS011;10938;44.794;-0.676;2022-09-02T07:06:40;7.35;;;4.03;;
21554;SDS011;10938;44.794;-0.676;2022-09-02T07:09:12;10.35;;;3.80;;
21554;SDS011;10938;44.794;-0.676;2022-09-02T07:11:40;6.60;;;4.03;;
21554;SDS011;10938;44.794;-0.676;2022-09-02T07:14:06;7.25;;;3.60;;
21554;SDS011;10938;44.794;-0.676;2022-09-02T07:16:33;5.72;;;3.80;;
21554;SDS011;10938;44.794;-0.676;2022-09-02T07:19:00;5.80;;;3.50;;
21554;SDS011;10938;44.794;-0.676;2022-09-02T07:21:27;8.02;;;4.18;;
21554;SDS011;10938;44.794;-0.676;2022-09-02T07:23:54;5.72;;;3.90;;
21554;SDS011;10938;44.794;-0.676;2022-09-02T07:26:22;7.78;;;3.40;;
21554;SDS011;10938;44.794;-0.676;2022-09-02T07:28:48;6.10;;;3.50;;
21554;SDS011;10938;44.794;-0.676;2022-09-02T07:31:14;5.68;;;3.28;;
21554;SDS011;10938;44.794;-0.676;2022-09-02T07:33:41;6.53;;;3.80;;
21554;SDS011;10938;44.794;-0.676;2022-09-02T07:36:09;5.05;;;3.50;;
21554;SDS011;10938;44.794;-0.676;2022-09-02T07:38:36;3.72;;;2.88;;
21554;SDS011;10938;44.794;-0.676;2022-09-02T07:41:02;6.50;;;3.20;;
21554;SDS011;10938;44.794;-0.676;2022-09-02T07:43:30;5.68;;;3.00;;
21554;SDS011;10938;44.794;-0.676;2022-09-02T07:45:56;6.45;;;3.33;;
21554;SDS011;10938;44.794;-0.676;2022-09-02T07:48:22;7.13;;;3.45;;
21554;SDS011;10938;44.794;-0.676;2022-09-02T07:50:49;6.38;;;3.03;;
21554;SDS011;10938;44.794;-0.676;2022-09-02T07:53:16;5.18;;;3.30;;
21554;SDS011;10938;44.794;-0.676;2022-09-02T07:55:42;5.15;;;3.30;;
21554;SDS011;10938;44.794;-0.676;2022-09-02T07:58:09;4.22;;;2.90;;
21554;SDS011;10938;44.794;-0.676;2022-09-02T08:00:35;5.30;;;3.28;;
21554;SDS011;10938;44.794;-0.676;2022-09-02T08:03:02;5.43;;;3.40;;
21554;SDS011;10938;44.794;-0.676;2022-09-02T08:05:29;5.63;;;2.50;;
21554;SDS011;10938;44.794;-0.676;2022-09-02T08:07:55;5.40;;;2.72;;
21554;SDS011;10938;44.794;-0.676;2022-09-02T08:10:21;4.43;;;3.15;;
21554;SDS011;10938;44.794;-0.676;2022-09-02T08:12:49;5.43;;;3.03;;
21554;SDS011;10938;44.794;-0.676;2022-09-02T08:15:15;4.53;;;2.80;;
21554;SDS011;10938;44.794;-0.676;2022-09-02T08:17:45;8.85;;;3.08;;
21554;SDS011;10938;44.794;-0.676;2022-09-02T08:20:13;4.88;;;2.75;;
21554;SDS011;10938;44.794;-0.676;2022-09-02T08:22:41;4.63;;;2.85;;
21554;SDS011;10938;44.794;-0.676;2022-09-02T08:25:07;7.05;;;2.97;;
21554;SDS011;10938;44.794;-0.676;2022-09-02T08:27:33;4.32;;;2.60;;
21554;SDS011;10938;44.794;-0.676;2022-09-02T08:29:59;7.05;;;2.88;;
21554;SDS011;10938;44.794;-0.676;2022-09-02T08:32:25;4.07;;;2.10;;
21554;SDS011;10938;44.794;-0.676;2022-09-02T08:34:52;5.45;;;3.20;;
21554;SDS011;10938;44.794;-0.676;2022-09-02T08:37:18;5.07;;;2.92;;
21554;SDS011;10938;44.794;-0.676;2022-09-02T08:39:44;4.63;;;3.10;;
21554;SDS011;10938;44.794;-0.676;2022-09-02T08:44:43;4.53;;;3.00;;
21554;SDS011;10938;44.794;-0.676;2022-09-02T08:47:12;4.03;;;2.80;;
21554;SDS011;10938;44.794;-0.676;2022-09-02T08:49:47;4.10;;;2.55;;
21554;SDS011;10938;44.794;-0.676;2022-09-02T08:52:21;4.45;;;2.90;;
21554;SDS011;10938;44.794;-0.676;2022-09-02T08:54:55;4.35;;;2.63;;
21554;SDS011;10938;44.794;-0.676;2022-09-02T08:57:21;3.75;;;2.20;;
21554;SDS011;10938;44.794;-0.676;2022-09-02T08:59:51;3.95;;;2.20;;
21554;SDS011;10938;44.794;-0.676;2022-09-02T09:02:28;3.00;;;1.73;;
21554;SDS011;10938;44.794;-0.676;2022-09-02T09:19:03;7.15;;;2.30;;
21554;SDS011;10938;44.794;-0.676;2022-09-02T09:21:34;3.80;;;2.10;;
21554;SDS011;10938;44.794;-0.676;2022-09-02T09:24:01;6.30;;;2.08;;
21554;SDS011;10938;44.794;-0.676;2022-09-02T09:26:32;6.53;;;1.92;;
21554;SDS011;10938;44.794;-0.676;2022-09-02T09:29:03;2.33;;;1.67;;
21554;SDS011;10938;44.794;-0.676;2022-09-02T09:31:29;8.30;;;2.60;;
21554;SDS011;10938;44.794;-0.676;2022-09-02T09:34:00;4.40;;;2.70;;
21554;SDS011;10938;44.794;-0.676;2022-09-02T09:39:18;3.28;;;1.80;;
21554;SDS011;10938;44.794;-0.676;2022-09-02T09:41:44;8.80;;;2.50;;
21554;SDS011;10938;44.794;-0.676;2022-09-02T09:44:24;8.23;;;2.80;;
21554;SDS011;10938;44.794;-0.676;2022-09-02T09:46:59;40.00;;;5.40;;
21554;SDS011;10938;44.794;-0.676;2022-09-02T09:49:30;36.35;;;5.00;;
21554;SDS011;10938;44.794;-0.676;2022-09-02T09:51:57;3.90;;;2.08;;
21554;SDS011;10938;44.794;-0.676;2022-09-02T09:54:24;12.77;;;3.42;;
21554;SDS011;10938;44.794;-0.676;2022-09-02T09:56:51;4.72;;;2.90;;
21554;SDS011;10938;44.794;-0.676;2022-09-02T10:02:02;6.53;;;2.83;;
21554;SDS011;10938;44.794;-0.676;2022-09-02T10:04:29;7.22;;;2.80;;
21554;SDS011;10938;44.794;-0.676;2022-09-02T10:06:56;5.35;;;2.58;;
21554;SDS011;10938;44.794;-0.676;2022-09-02T10:09:30;3.83;;;2.50;;
21554;SDS011;10938;44.794;-0.676;2022-09-02T10:12:02;3.15;;;2.10;;
21554;SDS011;10938;44.794;-0.676;2022-09-02T10:14:46;2.55;;;2.30;;
21554;SDS011;10938;44.794;-0.676;2022-09-02T10:22:54;4.75;;;2.50;;
21554;SDS011;10938;44.794;-0.676;2022-09-02T10:26:02;5.63;;;2.75;;
21554;SDS011;10938;44.794;-0.676;2022-09-02T10:40:18;9.90;;;4.18;;
21554;SDS011;10938;44.794;-0.676;2022-09-02T10:49:13;2.90;;;1.98;;
21554;SDS011;10938;44.794;-0.676;2022-09-02T10:51:09;4.63;;;2.05;;
21554;SDS011;10938;44.794;-0.676;2022-09-02T10:56:31;5.88;;;2.05;;
21554;SDS011;10938;44.794;-0.676;2022-09-02T10:59:05;4.30;;;2.17;;
21554;SDS011;10938;44.794;-0.676;2022-09-02T11:01:39;3.95;;;2.03;;
21554;SDS011;10938;44.794;-0.676;2022-09-02T11:04:21;4.85;;;2.60;;
21554;SDS011;10938;44.794;-0.676;2022-09-02T11:07:08;5.10;;;2.10;;
21554;SDS011;10938;44.794;-0.676;2022-09-02T11:09:39;3.95;;;2.05;;
21554;SDS011;10938;44.794;-0.676;2022-09-02T11:15:10;4.00;;;2.05;;
21554;SDS011;10938;44.794;-0.676;2022-09-02T11:20:28;4.75;;;2.22;;
21554;SDS011;10938;44.794;-0.676;2022-09-02T11:25:38;8.30;;;1.90;;
21554;SDS011;10938;44.794;-0.676;2022-09-02T11:31:14;5.47;;;1.85;;
21554;SDS011;10938;44.794;-0.676;2022-09-02T11:36:17;4.60;;;1.45;;
21554;SDS011;10938;44.794;-0.676;2022-09-02T11:38:49;3.30;;;1.40;;
21554;SDS011;10938;44.794;-0.676;2022-09-02T11:52:37;4.85;;;1.52;;
21554;SDS011;10938;44.794;-0.676;2022-09-02T11:55:09;2.30;;;1.02;;
21554;SDS011;10938;44.794;-0.676;2022-09-02T11:57:40;2.00;;;1.20;;
21554;SDS011;10938;44.794;-0.676;2022-09-02T12:03:13;4.43;;;1.40;;
21554;SDS011;10938;44.794;-0.676;2022-09-02T12:05:46;1.90;;;1.13;;
21554;SDS011;10938;44.794;-0.676;2022-09-02T12:21:33;2.35;;;1.00;;
21554;SDS011;10938;44.794;-0.676;2022-09-02T12:24:09;3.53;;;0.90;;
21554;SDS011;10938;44.794;-0.676;2022-09-02T12:31:44;2.75;;;0.95;;
21554;SDS011;10938;44.794;-0.676;2022-09-02T12:36:52;3.00;;;0.70;;
21554;SDS011;10938;44.794;-0.676;2022-09-02T12:42:14;2.25;;;0.90;;
21554;SDS011;10938;44.794;-0.676;2022-09-02T12:55:35;3.17;;;1.00;;
21554;SDS011;10938;44.794;-0.676;2022-09-02T12:58:12;1.58;;;0.70;;
21554;SDS011;10938;44.794;-0.676;2022-09-02T13:03:45;2.47;;;0.80;;
21554;SDS011;10938;44.794;-0.676;2022-09-02T13:14:50;1.88;;;0.90;;
21554;SDS011;10938;44.794;-0.676;2022-09-02T13:30:48;2.03;;;1.00;;
21554;SDS011;10938;44.794;-0.676;2022-09-02T13:33:31;2.47;;;0.90;;
21554;SDS011;10938;44.794;-0.676;2022-09-02T13:35:57;1.40;;;1.30;;
21554;SDS011;10938;44.794;-0.676;2022-09-02T13:38:25;1.92;;;1.23;;
21554;SDS011;10938;44.794;-0.676;2022-09-02T13:40:52;2.55;;;1.08;;
21554;SDS011;10938;44.794;-0.676;2022-09-02T13:43:19;2.22;;;1.10;;
21554;SDS011;10938;44.794;-0.676;2022-09-02T13:45:47;1.10;;;0.90;;
21554;SDS011;10938;44.794;-0.676;2022-09-02T13:48:15;1.80;;;1.20;;
21554;SDS011;10938;44.794;-0.676;2022-09-02T13:50:47;2.63;;;1.02;;
21554;SDS011;10938;44.794;-0.676;2022-09-02T13:55:51;2.38;;;1.30;;
21554;SDS011;10938;44.794;-0.676;2022-09-02T13:58:39;4.30;;;1.00;;
21554;SDS011;10938;44.794;-0.676;2022-09-02T14:01:19;1.55;;;1.10;;
21554;SDS011;10938;44.794;-0.676;2022-09-02T14:03:49;3.45;;;1.27;;
21554;SDS011;10938;44.794;-0.676;2022-09-02T14:06:19;1.55;;;1.10;;
21554;SDS011;10938;44.794;-0.676;2022-09-02T14:08:54;3.72;;;1.30;;
21554;SDS011;10938;44.794;-0.676;2022-09-02T14:11:23;1.75;;;1.20;;
21554;SDS011;10938;44.794;-0.676;2022-09-02T14:13:50;1.40;;;1.00;;
21554;SDS011;10938;44.794;-0.676;2022-09-02T14:21:44;1.83;;;1.17;;
21554;SDS011;10938;44.794;-0.676;2022-09-02T14:24:11;2.78;;;1.17;;
21554;SDS011;10938;44.794;-0.676;2022-09-02T14:26:42;1.88;;;1.00;;
21554;SDS011;10938;44.794;-0.676;2022-09-02T14:29:13;1.80;;;1.10;;
21554;SDS011;10938;44.794;-0.676;2022-09-02T14:31:41;3.08;;;1.35;;
21554;SDS011;10938;44.794;-0.676;2022-09-02T14:36:57;3.28;;;1.40;;
21554;SDS011;10938;44.794;-0.676;2022-09-02T14:39:23;1.38;;;1.20;;
21554;SDS011;10938;44.794;-0.676;2022-09-02T14:41:49;2.72;;;1.23;;
21554;SDS011;10938;44.794;-0.676;2022-09-02T14:46:50;2.92;;;1.15;;
21554;SDS011;10938;44.794;-0.676;2022-09-02T14:49:24;2.85;;;1.38;;
21554;SDS011;10938;44.794;-0.676;2022-09-02T14:52:02;2.42;;;1.17;;
21554;SDS011;10938;44.794;-0.676;2022-09-02T14:54:40;2.30;;;1.13;;
21554;SDS011;10938;44.794;-0.676;2022-09-02T14:59:52;4.78;;;1.33;;
21554;SDS011;10938;44.794;-0.676;2022-09-02T15:02:23;1.67;;;1.10;;
21554;SDS011;10938;44.794;-0.676;2022-09-02T15:04:55;2.28;;;1.20;;
21554;SDS011;10938;44.794;-0.676;2022-09-02T15:07:22;1.55;;;1.02;;
21554;SDS011;10938;44.794;-0.676;2022-09-02T15:09:48;2.15;;;1.60;;
21554;SDS011;10938;44.794;-0.676;2022-09-02T15:12:26;2.75;;;1.40;;
21554;SDS011;10938;44.794;-0.676;2022-09-02T15:14:55;2.28;;;1.23;;
21554;SDS011;10938;44.794;-0.676;2022-09-02T15:17:20;3.88;;;1.20;;
21554;SDS011;10938;44.794;-0.676;2022-09-02T15:19:47;2.10;;;1.30;;
21554;SDS011;10938;44.794;-0.676;2022-09-02T15:22:13;3.78;;;1.40;;
21554;SDS011;10938;44.794;-0.676;2022-09-02T15:24:41;3.35;;;1.30;;
21554;SDS011;10938;44.794;-0.676;2022-09-02T15:27:08;3.97;;;1.70;;
21554;SDS011;10938;44.794;-0.676;2022-09-02T15:29:34;4.32;;;1.30;;
21554;SDS011;10938;44.794;-0.676;2022-09-02T15:32:00;2.95;;;1.15;;
21554;SDS011;10938;44.794;-0.676;2022-09-02T15:34:28;3.20;;;1.30;;
21554;SDS011;10938;44.794;-0.676;2022-09-02T15:36:53;3.47;;;1.60;;
21554;SDS011;10938;44.794;-0.676;2022-09-02T15:39:20;2.60;;;1.40;;
21554;SDS011;10938;44.794;-0.676;2022-09-02T15:41:46;3.17;;;1.33;;
21554;SDS011;10938;44.794;-0.676;2022-09-02T15:44:14;2.70;;;1.55;;
21554;SDS011;10938;44.794;-0.676;2022-09-02T15:46:40;4.32;;;1.20;;
21554;SDS011;10938;44.794;-0.676;2022-09-02T15:49:08;2.75;;;1.33;;
21554;SDS011;10938;44.794;-0.676;2022-09-02T15:51:36;2.95;;;1.25;;
21554;SDS011;10938;44.794;-0.676;2022-09-02T15:54:07;3.28;;;1.30;;
21554;SDS011;10938;44.794;-0.676;2022-09-02T15:56:36;4.25;;;1.20;;
21554;SDS011;10938;44.794;-0.676;2022-09-02T15:59:08;4.40;;;1.58;;
21554;SDS011;10938;44.794;-0.676;2022-09-02T16:01:45;2.75;;;1.38;;
21554;SDS011;10938;44.794;-0.676;2022-09-02T16:04:12;3.88;;;1.63;;
21554;SDS011;10938;44.794;-0.676;2022-09-02T16:06:40;4.03;;;1.42;;
21554;SDS011;10938;44.794;-0.676;2022-09-02T16:09:08;3.65;;;1.50;;
21554;SDS011;10938;44.794;-0.676;2022-09-02T16:11:40;3.83;;;1.33;;
21554;SDS011;10938;44.794;-0.676;2022-09-02T16:14:08;3.72;;;1.30;;
21554;SDS011;10938;44.794;-0.676;2022-09-02T16:16:33;2.92;;;1.20;;
21554;SDS011;10938;44.794;-0.676;2022-09-02T16:19:03;4.65;;;1.38;;
21554;SDS011;10938;44.794;-0.676;2022-09-02T16:21:31;2.67;;;1.10;;
21554;SDS011;10938;44.794;-0.676;2022-09-02T16:23:58;3.35;;;1.23;;
21554;SDS011;10938;44.794;-0.676;2022-09-02T16:26:24;1.85;;;1.08;;
21554;SDS011;10938;44.794;-0.676;2022-09-02T16:28:51;2.13;;;1.13;;
21554;SDS011;10938;44.794;-0.676;2022-09-02T16:31:19;4.15;;;1.15;;
21554;SDS011;10938;44.794;-0.676;2022-09-02T16:36:24;2.67;;;1.35;;
21554;SDS011;10938;44.794;-0.676;2022-09-02T16:38:50;2.75;;;1.15;;
21554;SDS011;10938;44.794;-0.676;2022-09-02T16:41:23;4.70;;;1.30;;
21554;SDS011;10938;44.794;-0.676;2022-09-02T16:43:51;6.13;;;1.55;;
21554;SDS011;10938;44.794;-0.676;2022-09-02T16:46:18;1.40;;;1.00;;
21554;SDS011;10938;44.794;-0.676;2022-09-02T16:48:44;4.43;;;1.30;;
21554;SDS011;10938;44.794;-0.676;2022-09-02T16:51:10;2.65;;;1.10;;
21554;SDS011;10938;44.794;-0.676;2022-09-02T16:53:35;3.63;;;1.17;;
21554;SDS011;10938;44.794;-0.676;2022-09-02T16:56:01;5.38;;;3.08;;
21554;SDS011;10938;44.794;-0.676;2022-09-02T16:58:28;7.72;;;3.83;;
21554;SDS011;10938;44.794;-0.676;2022-09-02T17:00:53;3.35;;;1.70;;
21554;SDS011;10938;44.794;-0.676;2022-09-02T17:03:19;10.98;;;5.40;;
21554;SDS011;10938;44.794;-0.676;2022-09-02T17:05:44;7.97;;;4.97;;
21554;SDS011;10938;44.794;-0.676;2022-09-02T17:08:12;5.70;;;3.40;;
21554;SDS011;10938;44.794;-0.676;2022-09-02T17:10:37;7.03;;;3.30;;
21554;SDS011;10938;44.794;-0.676;2022-09-02T17:13:02;6.95;;;4.45;;
21554;SDS011;10938;44.794;-0.676;2022-09-02T17:15:28;4.38;;;2.72;;
21554;SDS011;10938;44.794;-0.676;2022-09-02T17:17:54;5.28;;;2.45;;